Main page
METAR-TAF:

METAR-TAF

Airports :

Cheongju International Airport

Cheongju, South Korea

latitude: 36-42N, longitude: 127-30E, elevation: 58 m

Current weather observation

The report was made 1 hour and 13 minutes ago, at 20:00 UTC
Wind 1 kt from the South
Temperature -6°C
Humidity 93%
Pressure 1021 hPa
Visibility: 8000 m

METAR: RKTU 172000Z 17001KT 8000 NSC M06/M07 Q1021

Time: 06:13 (21:13 UTC)

Forecast

The report was made 4 hours and 13 minutes ago, at 17:00 UTC
Forecast valid from 17 at 18 UTC to 18 at 24 UTC
Wind 6 kt from the West/Northwest
Visibility 10 km or more
no clouds below 1500 m and no cumulonimbus

TAF: RKTU 171700Z 1718/1824 30006KT CAVOK TNM07/1721Z TX06/1806Z

Weather observations and forecasts of more than 4000 airports (METAR and TAF reports).

The available stations are represented by yellow and red dots on the map.

Hover mouse over dot to see the name of the station.

Then click to see weather observations and forecasts.

To change the map : click on the green buttons with a black cross to zoom in, on the green button with a dash to zoom out, or on the green arrows for adjacent maps.


METAR-TAF: